createdAt,value
2022-08-30T00:03:46.999Z,21.13
2022-08-30T00:06:16.357Z,21.10
2022-08-30T00:08:44.343Z,21.12
2022-08-30T00:11:14.947Z,21.07
2022-08-30T00:13:44.629Z,21.15
2022-08-30T00:16:12.618Z,21.18
2022-08-30T00:18:40.769Z,21.10
2022-08-30T00:21:08.509Z,21.11
2022-08-30T00:23:35.763Z,21.09
2022-08-30T00:26:03.541Z,20.91
2022-08-30T00:28:30.698Z,20.88
2022-08-30T00:30:58.160Z,20.73
2022-08-30T00:33:25.438Z,20.75
2022-08-30T00:35:52.383Z,20.80
2022-08-30T00:38:19.588Z,20.86
2022-08-30T00:40:46.846Z,20.89
2022-08-30T00:43:36.691Z,20.75
2022-08-30T00:46:07.870Z,20.80
2022-08-30T00:48:40.772Z,20.80
2022-08-30T00:51:11.579Z,20.71
2022-08-30T00:53:44.660Z,20.59
2022-08-30T00:56:12.246Z,20.39
2022-08-30T00:58:45.593Z,20.30
2022-08-30T01:01:13.222Z,20.21
2022-08-30T01:03:42.164Z,20.26
2022-08-30T01:06:09.476Z,20.33
2022-08-30T01:08:36.711Z,20.33
2022-08-30T01:11:05.142Z,20.30
2022-08-30T01:13:35.367Z,20.36
2022-08-30T01:16:03.626Z,20.39
2022-08-30T01:18:32.254Z,20.41
2022-08-30T01:21:08.634Z,20.51
2022-08-30T01:23:39.503Z,20.57
2022-08-30T01:26:08.231Z,20.58
2022-08-30T01:28:35.735Z,20.57
2022-08-30T01:31:03.396Z,20.55
2022-08-30T01:33:31.025Z,20.60
2022-08-30T01:36:04.495Z,20.65
2022-08-30T01:38:36.855Z,20.64
2022-08-30T01:41:19.786Z,20.54
2022-08-30T01:43:47.774Z,20.55
2022-08-30T01:46:16.817Z,20.57
2022-08-30T01:48:50.199Z,20.59
2022-08-30T01:51:22.707Z,20.64
2022-08-30T01:53:50.011Z,20.64
2022-08-30T01:56:18.064Z,20.62
2022-08-30T01:58:45.643Z,20.66
2022-08-30T02:01:15.009Z,20.73
2022-08-30T02:03:44.571Z,20.77
2022-08-30T02:06:15.782Z,20.80
2022-08-30T02:08:43.822Z,20.81
2022-08-30T02:11:12.222Z,20.83
2022-08-30T02:13:41.535Z,20.81
2022-08-30T02:16:11.521Z,20.85
2022-08-30T02:18:41.892Z,20.87
2022-08-30T02:21:10.022Z,20.85
2022-08-30T02:23:37.455Z,20.85
2022-08-30T02:26:05.483Z,20.89
2022-08-30T02:28:32.772Z,20.86
2022-08-30T02:31:00.840Z,20.83
2022-08-30T02:33:28.043Z,20.86
2022-08-30T02:35:56.313Z,20.85
2022-08-30T02:38:24.395Z,20.85
2022-08-30T02:40:51.984Z,20.89
2022-08-30T02:43:19.072Z,20.92
2022-08-30T02:45:46.096Z,20.80
2022-08-30T02:48:13.261Z,20.81
2022-08-30T02:50:46.033Z,20.83
2022-08-30T02:53:16.400Z,20.86
2022-08-30T02:55:44.222Z,20.88
2022-08-30T02:58:11.644Z,20.89
2022-08-30T03:00:39.562Z,20.89
2022-08-30T03:03:07.616Z,20.92
2022-08-30T03:05:35.345Z,20.92
2022-08-30T03:08:07.392Z,20.87
2022-08-30T03:10:34.552Z,20.75
2022-08-30T03:13:01.947Z,20.75
2022-08-30T03:15:29.185Z,20.64
2022-08-30T03:17:56.712Z,20.55
2022-08-30T03:20:24.292Z,20.47
2022-08-30T03:22:52.182Z,20.48
2022-08-30T03:25:23.234Z,20.48
2022-08-30T03:27:50.907Z,20.46
2022-08-30T03:30:20.384Z,20.42
2022-08-30T03:32:48.355Z,20.16
2022-08-30T03:35:16.983Z,20.16
2022-08-30T03:37:45.024Z,20.25
2022-08-30T03:40:14.289Z,20.20
2022-08-30T03:42:43.324Z,20.10
2022-08-30T03:45:11.827Z,20.04
2022-08-30T03:47:38.856Z,19.95
2022-08-30T03:50:10.352Z,19.93
2022-08-30T03:52:37.463Z,20.05
2022-08-30T03:55:05.243Z,20.05
2022-08-30T03:57:32.612Z,20.03
2022-08-30T04:00:01.626Z,20.11
2022-08-30T04:02:29.355Z,20.15
2022-08-30T04:04:56.307Z,20.21
2022-08-30T04:07:23.227Z,20.22
2022-08-30T04:09:50.124Z,20.08
2022-08-30T04:12:18.412Z,20.18
2022-08-30T04:14:49.815Z,20.27
2022-08-30T04:17:16.683Z,20.22
2022-08-30T04:19:43.611Z,20.25
2022-08-30T04:22:10.503Z,20.24
2022-08-30T04:24:38.625Z,20.25
2022-08-30T04:27:05.811Z,20.39
2022-08-30T04:29:33.764Z,20.48
2022-08-30T04:32:01.414Z,20.54
2022-08-30T04:34:28.570Z,20.65
2022-08-30T04:36:55.622Z,20.72
2022-08-30T04:39:22.894Z,20.80
2022-08-30T04:41:49.883Z,20.84
2022-08-30T04:44:19.091Z,20.89
2022-08-30T04:46:46.692Z,20.92
2022-08-30T04:49:14.463Z,21.02
2022-08-30T04:51:41.673Z,21.04
2022-08-30T04:54:08.714Z,21.06
2022-08-30T04:56:35.894Z,21.06
2022-08-30T04:59:03.583Z,21.05
2022-08-30T05:01:35.266Z,21.10
2022-08-30T05:04:14.324Z,21.11
2022-08-30T05:06:41.953Z,21.13
2022-08-30T05:09:09.082Z,21.22
2022-08-30T05:11:36.144Z,21.23
2022-08-30T05:14:03.132Z,21.26
2022-08-30T05:16:30.341Z,21.36
2022-08-30T05:18:58.239Z,21.41
2022-08-30T05:21:27.607Z,21.46
2022-08-30T05:24:00.292Z,21.50
2022-08-30T05:26:33.473Z,21.52
2022-08-30T05:29:04.074Z,21.56
2022-08-30T05:31:35.802Z,21.61
2022-08-30T05:34:04.486Z,21.67
2022-08-30T05:36:34.430Z,21.71
2022-08-30T05:39:01.552Z,21.68
2022-08-30T05:41:28.925Z,21.78
2022-08-30T05:44:09.124Z,21.83
2022-08-30T05:46:37.349Z,21.90
2022-08-30T05:49:06.678Z,21.92
2022-08-30T05:51:36.023Z,22.03
2022-08-30T05:54:10.324Z,22.10
2022-08-30T05:56:39.375Z,22.17
2022-08-30T05:59:07.594Z,22.24
2022-08-30T06:01:44.027Z,22.32
2022-08-30T06:04:12.073Z,22.36
2022-08-30T06:06:41.434Z,22.46
2022-08-30T06:09:10.505Z,22.50
2022-08-30T06:11:38.327Z,22.54
2022-08-30T06:14:06.095Z,22.54
2022-08-30T06:16:33.792Z,22.58
2022-08-30T06:19:00.990Z,22.61
2022-08-30T06:21:37.302Z,22.73
2022-08-30T06:24:06.438Z,22.73
2022-08-30T06:26:38.459Z,22.73
2022-08-30T06:29:05.698Z,22.84
2022-08-30T06:31:34.316Z,22.88
2022-08-30T06:34:02.011Z,22.92
2022-08-30T06:36:29.167Z,22.96
2022-08-30T06:38:58.717Z,23.02
2022-08-30T06:41:29.336Z,23.12
2022-08-30T06:43:57.463Z,23.21
2022-08-30T06:46:30.196Z,23.30
2022-08-30T06:48:57.529Z,23.36
2022-08-30T06:51:30.692Z,23.35
2022-08-30T06:53:58.921Z,23.42
2022-08-30T06:56:27.695Z,23.58
2022-08-30T06:58:55.072Z,23.69
2022-08-30T07:01:27.593Z,23.74
2022-08-30T07:03:55.718Z,23.63
2022-08-30T07:06:24.734Z,23.84
2022-08-30T07:08:56.003Z,23.94
2022-08-30T07:11:30.155Z,24.06
2022-08-30T07:13:57.489Z,24.23
2022-08-30T07:16:24.798Z,24.36
2022-08-30T07:18:51.987Z,24.53
2022-08-30T07:21:25.696Z,24.70
2022-08-30T07:23:53.750Z,24.89
2022-08-30T07:26:27.717Z,24.97
2022-08-30T07:28:56.634Z,25.11
2022-08-30T07:31:24.679Z,25.24
2022-08-30T07:33:52.916Z,25.25
2022-08-30T07:36:22.041Z,25.32
2022-08-30T07:38:53.058Z,25.36
2022-08-30T07:41:24.146Z,25.56
2022-08-30T07:43:51.238Z,25.53
2022-08-30T07:46:19.701Z,25.74
2022-08-30T07:48:47.104Z,26.00
2022-08-30T07:51:18.370Z,26.15
2022-08-30T07:53:45.795Z,26.30
2022-08-30T07:56:13.617Z,26.53
2022-08-30T07:58:40.654Z,26.75
2022-08-30T08:01:10.224Z,26.93
2022-08-30T08:03:40.104Z,27.07
2022-08-30T08:06:08.368Z,27.23
2022-08-30T08:08:36.194Z,27.36
2022-08-30T08:11:31.672Z,27.55
2022-08-30T08:14:00.434Z,27.60
2022-08-30T08:16:29.436Z,27.80
2022-08-30T08:18:56.974Z,28.04
2022-08-30T08:21:25.904Z,27.94
2022-08-30T08:23:52.808Z,27.70
2022-08-30T08:26:21.154Z,27.65
2022-08-30T08:28:48.396Z,27.93
2022-08-30T08:31:21.924Z,27.92
2022-08-30T08:33:52.512Z,28.02
2022-08-30T08:36:19.510Z,28.20
2022-08-30T08:38:46.740Z,28.30
2022-08-30T08:41:39.688Z,28.42
2022-08-30T08:44:14.647Z,28.47
2022-08-30T08:46:49.528Z,28.50
2022-08-30T08:49:16.941Z,28.06
2022-08-30T08:52:20.959Z,27.88
2022-08-30T08:54:59.099Z,28.03
2022-08-30T08:57:28.507Z,27.93
2022-08-30T08:59:55.562Z,27.96
2022-08-30T09:02:29.697Z,27.90
2022-08-30T09:05:00.954Z,27.62
2022-08-30T09:07:32.474Z,27.78
2022-08-30T09:10:00.841Z,27.90
2022-08-30T09:12:28.590Z,28.01
2022-08-30T09:15:02.876Z,27.95
2022-08-30T09:17:30.060Z,27.90
2022-08-30T09:19:59.020Z,27.91
2022-08-30T09:22:46.631Z,27.99
2022-08-30T09:25:13.671Z,28.02
2022-08-30T09:27:41.824Z,28.01
2022-08-30T09:30:20.134Z,28.03
2022-08-30T09:32:59.605Z,27.93
2022-08-30T09:35:37.257Z,27.77
2022-08-30T09:38:08.515Z,27.73
2022-08-30T09:40:40.018Z,27.82
2022-08-30T09:43:17.983Z,27.69
2022-08-30T09:46:01.132Z,27.69
2022-08-30T09:48:45.759Z,27.64
2022-08-30T09:51:15.303Z,27.68
2022-08-30T09:54:18.500Z,27.63
2022-08-30T09:57:12.713Z,27.64
2022-08-30T09:59:52.047Z,27.61
2022-08-30T10:02:51.044Z,27.59
2022-08-30T10:05:49.968Z,27.63
2022-08-30T10:08:22.147Z,27.64
2022-08-30T10:10:59.672Z,27.66
2022-08-30T10:13:45.027Z,27.69
2022-08-30T10:16:43.172Z,27.52
2022-08-30T10:19:50.382Z,27.83
2022-08-30T10:22:25.502Z,27.73
2022-08-30T10:25:02.925Z,27.83
2022-08-30T10:27:36.899Z,28.11
2022-08-30T10:30:14.148Z,28.36
2022-08-30T10:32:51.579Z,28.71
2022-08-30T10:35:29.038Z,28.69
2022-08-30T10:38:09.419Z,28.78
2022-08-30T10:41:03.306Z,28.88
2022-08-30T10:43:54.232Z,28.79
2022-08-30T10:46:30.891Z,28.77
2022-08-30T10:49:01.829Z,28.72
2022-08-30T10:51:39.998Z,28.55
2022-08-30T10:57:20.231Z,28.88
2022-08-30T11:00:13.902Z,28.88
2022-08-30T11:02:59.250Z,28.97
2022-08-30T11:05:46.125Z,29.31
2022-08-30T11:08:42.070Z,29.52
2022-08-30T11:11:27.868Z,29.35
2022-08-30T11:14:05.442Z,29.17
2022-08-30T11:16:45.100Z,29.42
2022-08-30T11:19:39.119Z,29.60
2022-08-30T11:22:22.093Z,29.85
2022-08-30T11:25:10.590Z,29.95
2022-08-30T11:27:53.999Z,30.09
2022-08-30T11:30:27.384Z,30.00
2022-08-30T11:33:07.877Z,29.87
2022-08-30T11:35:48.060Z,29.69
2022-08-30T11:38:22.129Z,29.74
2022-08-30T11:40:55.189Z,29.83
2022-08-30T11:43:40.385Z,29.93
2022-08-30T11:49:10.571Z,29.88
2022-08-30T11:51:38.623Z,29.68
2022-08-30T11:54:24.262Z,29.75
2022-08-30T11:57:17.599Z,29.84
2022-08-30T11:59:52.747Z,29.88
2022-08-30T12:03:02.717Z,29.58
2022-08-30T12:05:41.366Z,29.72
2022-08-30T12:08:20.647Z,29.85
2022-08-30T12:10:54.649Z,29.83
2022-08-30T12:13:38.427Z,29.60
2022-08-30T12:16:11.804Z,29.66
2022-08-30T12:18:44.553Z,29.52
2022-08-30T12:21:21.347Z,29.23
2022-08-30T12:24:10.107Z,29.48
2022-08-30T12:26:41.285Z,29.57
2022-08-30T12:29:25.977Z,29.78
2022-08-30T12:32:22.340Z,29.77
2022-08-30T12:34:55.245Z,29.94
2022-08-30T12:37:25.049Z,30.01
2022-08-30T12:40:12.444Z,29.76
2022-08-30T12:42:50.398Z,30.03
2022-08-30T12:45:23.732Z,30.16
2022-08-30T12:48:13.457Z,29.97
2022-08-30T12:50:52.700Z,30.06
2022-08-30T12:53:46.827Z,30.11
2022-08-30T12:56:18.977Z,30.21
2022-08-30T12:58:53.586Z,30.01
2022-08-30T13:01:29.560Z,29.73
2022-08-30T13:04:18.946Z,29.67
2022-08-30T13:06:50.982Z,29.54
2022-08-30T13:09:32.225Z,29.34
2022-08-30T13:12:02.156Z,29.22
2022-08-30T13:14:37.346Z,29.35
2022-08-30T13:17:11.328Z,29.58
2022-08-30T13:19:48.026Z,29.36
2022-08-30T13:22:30.621Z,29.44
2022-08-30T13:24:58.066Z,29.61
2022-08-30T13:27:27.016Z,29.54
2022-08-30T13:29:55.109Z,29.55
2022-08-30T13:32:23.930Z,29.61
2022-08-30T13:34:50.990Z,29.56
2022-08-30T13:40:14.226Z,29.19
2022-08-30T13:42:43.484Z,28.92
2022-08-30T13:48:00.676Z,29.04
2022-08-30T13:50:28.126Z,29.21
2022-08-30T13:52:58.958Z,29.20
2022-08-30T13:55:25.937Z,29.24
2022-08-30T13:57:54.803Z,29.26
2022-08-30T14:00:24.922Z,29.37
2022-08-30T14:02:59.759Z,29.26
2022-08-30T14:05:54.716Z,29.16
2022-08-30T14:11:16.254Z,29.03
2022-08-30T14:16:34.860Z,28.90
2022-08-30T14:19:02.195Z,28.97
2022-08-30T14:21:29.873Z,29.06
2022-08-30T14:23:59.015Z,28.90
2022-08-30T14:26:32.364Z,28.75
2022-08-30T14:29:02.142Z,28.50
2022-08-30T14:31:30.443Z,28.15
2022-08-30T14:34:30.093Z,27.98
2022-08-30T14:37:00.142Z,27.93
2022-08-30T14:39:27.949Z,27.91
2022-08-30T14:41:57.938Z,27.99
2022-08-30T14:47:47.697Z,28.07
2022-08-30T14:50:15.686Z,28.09
2022-08-30T14:52:45.307Z,27.93
2022-08-30T14:55:14.277Z,27.73
2022-08-30T14:57:42.467Z,27.43
2022-08-30T15:00:13.466Z,27.46
2022-08-30T15:02:42.083Z,27.55
2022-08-30T15:05:10.113Z,27.29
2022-08-30T15:07:38.334Z,27.24
2022-08-30T15:10:08.604Z,27.19
2022-08-30T15:12:36.075Z,27.13
2022-08-30T15:15:04.621Z,27.01
2022-08-30T15:17:33.652Z,27.10
2022-08-30T15:20:01.301Z,26.95
2022-08-30T15:22:28.523Z,26.90
2022-08-30T15:24:57.054Z,26.69
2022-08-30T15:27:25.493Z,26.61
2022-08-30T15:29:53.750Z,26.49
2022-08-30T15:32:22.540Z,26.53
2022-08-30T15:34:55.876Z,26.51
2022-08-30T15:37:27.561Z,26.61
2022-08-30T15:39:56.201Z,26.65
2022-08-30T15:42:23.383Z,26.64
2022-08-30T15:44:54.907Z,26.62
2022-08-30T15:47:23.558Z,26.60
2022-08-30T15:50:03.221Z,26.45
2022-08-30T15:52:30.790Z,26.44
2022-08-30T15:54:58.139Z,26.46
2022-08-30T15:57:25.489Z,26.40
2022-08-30T15:59:54.724Z,26.37
2022-08-30T16:02:22.498Z,26.30
2022-08-30T16:04:55.295Z,26.20
2022-08-30T16:07:32.271Z,26.22
2022-08-30T16:09:59.599Z,26.19
2022-08-30T16:12:26.533Z,26.16
2022-08-30T16:14:53.623Z,26.03
2022-08-30T16:17:20.655Z,25.97
2022-08-30T16:19:47.946Z,25.96
2022-08-30T16:22:19.527Z,25.93
2022-08-30T16:24:49.865Z,25.85
2022-08-30T16:27:17.087Z,25.75
2022-08-30T16:29:44.084Z,25.69
2022-08-30T16:32:11.346Z,25.64
2022-08-30T16:34:38.363Z,25.61
2022-08-30T16:37:05.546Z,25.59
2022-08-30T16:39:32.567Z,25.55
2022-08-30T16:42:03.103Z,25.55
2022-08-30T16:44:30.315Z,25.51
2022-08-30T16:46:57.654Z,25.45
2022-08-30T16:49:25.548Z,25.42
2022-08-30T16:51:53.148Z,25.44
2022-08-30T16:54:20.423Z,25.39
2022-08-30T16:56:47.635Z,25.32
2022-08-30T16:59:14.985Z,25.26
2022-08-30T17:01:42.686Z,25.25
2022-08-30T17:04:11.255Z,25.24
2022-08-30T17:06:40.352Z,25.20
2022-08-30T17:09:08.518Z,25.17
2022-08-30T17:11:37.569Z,25.15
2022-08-30T17:14:08.200Z,25.05
2022-08-30T17:16:36.948Z,25.00
2022-08-30T17:19:05.174Z,24.94
2022-08-30T17:21:32.659Z,24.87
2022-08-30T17:24:01.828Z,24.83
2022-08-30T17:26:35.716Z,24.77
2022-08-30T17:29:05.678Z,24.73
2022-08-30T17:31:35.058Z,24.69
2022-08-30T17:34:04.150Z,24.68
2022-08-30T17:36:36.507Z,24.61
2022-08-30T17:39:11.221Z,24.56
2022-08-30T17:41:49.946Z,24.28
2022-08-30T17:44:25.499Z,24.38
2022-08-30T17:46:53.978Z,24.16
2022-08-30T17:49:21.438Z,24.18
2022-08-30T17:51:56.371Z,24.17
2022-08-30T17:54:25.822Z,24.15
2022-08-30T17:56:53.817Z,24.18
2022-08-30T17:59:25.098Z,24.18
2022-08-30T18:01:52.906Z,24.17
2022-08-30T18:04:20.534Z,24.15
2022-08-30T18:06:48.206Z,24.16
2022-08-30T18:09:16.207Z,24.13
2022-08-30T18:11:43.142Z,24.07
2022-08-30T18:14:11.545Z,24.04
2022-08-30T18:16:49.714Z,24.00
2022-08-30T18:19:20.509Z,23.98
2022-08-30T18:21:47.496Z,24.00
2022-08-30T18:24:16.927Z,23.97
2022-08-30T18:26:44.161Z,23.97
2022-08-30T18:29:11.558Z,23.96
2022-08-30T18:31:39.306Z,23.96
2022-08-30T18:34:12.421Z,23.89
2022-08-30T18:36:40.666Z,23.91
2022-08-30T18:39:08.646Z,23.74
2022-08-30T18:41:43.071Z,23.81
2022-08-30T18:44:26.732Z,23.76
2022-08-30T18:47:00.222Z,23.63
2022-08-30T18:49:28.602Z,23.64
2022-08-30T18:51:56.156Z,23.51
2022-08-30T18:54:29.616Z,23.59
2022-08-30T18:56:58.765Z,23.27
2022-08-30T18:59:35.733Z,23.41
2022-08-30T19:02:07.549Z,23.33
2022-08-30T19:04:38.038Z,23.34
2022-08-30T19:07:11.915Z,23.39
2022-08-30T19:09:42.144Z,23.42
2022-08-30T19:15:01.463Z,23.23
2022-08-30T19:17:40.753Z,23.19
2022-08-30T19:20:10.941Z,23.38
2022-08-30T19:23:03.707Z,23.33
2022-08-30T19:25:27.752Z,23.18
2022-08-30T19:27:56.842Z,23.32
2022-08-30T19:30:29.784Z,23.14
2022-08-30T19:32:59.643Z,23.13
2022-08-30T19:35:30.291Z,23.15
2022-08-30T19:37:59.357Z,23.29
2022-08-30T19:40:26.881Z,23.22
2022-08-30T19:42:55.193Z,23.16
2022-08-30T19:45:23.464Z,23.05
2022-08-30T19:47:53.636Z,22.99
2022-08-30T19:50:22.207Z,23.08
2022-08-30T19:52:54.078Z,23.09
2022-08-30T19:55:29.999Z,22.96
2022-08-30T19:57:59.091Z,23.02
2022-08-30T20:00:26.432Z,22.98
2022-08-30T20:02:53.347Z,22.93
2022-08-30T20:05:21.715Z,22.89
2022-08-30T20:07:51.515Z,22.85
2022-08-30T20:10:20.767Z,22.86
2022-08-30T20:12:52.954Z,22.85
2022-08-30T20:15:20.447Z,22.83
2022-08-30T20:18:14.393Z,22.83
2022-08-30T20:20:37.075Z,22.76
2022-08-30T20:23:05.457Z,22.76
2022-08-30T20:24:32.124Z,23.21
2022-08-30T20:25:32.958Z,22.79
2022-08-30T20:28:00.563Z,22.79
2022-08-30T20:30:27.544Z,22.69
2022-08-30T20:32:54.833Z,22.64
2022-08-30T20:35:23.804Z,22.54
2022-08-30T20:37:51.194Z,22.57
2022-08-30T20:40:19.099Z,22.48
2022-08-30T20:42:46.593Z,22.40
2022-08-30T20:45:16.464Z,22.21
2022-08-30T20:47:43.727Z,22.16
2022-08-30T20:50:14.033Z,22.07
2022-08-30T20:52:41.802Z,22.06
2022-08-30T20:55:10.343Z,22.14
2022-08-30T20:57:37.796Z,22.10
2022-08-30T21:00:08.171Z,22.14
2022-08-30T21:02:37.073Z,22.13
2022-08-30T21:05:11.691Z,22.11
2022-08-30T21:07:39.521Z,22.09
2022-08-30T21:10:06.971Z,22.06
2022-08-30T21:12:34.192Z,21.98
2022-08-30T21:15:15.335Z,21.73
2022-08-30T21:17:48.451Z,21.66
2022-08-30T21:20:15.445Z,21.77
2022-08-30T21:22:42.646Z,21.79
2022-08-30T21:25:10.161Z,21.91
2022-08-30T21:27:37.642Z,21.93
2022-08-30T21:30:06.171Z,21.97
2022-08-30T21:32:33.223Z,21.98
2022-08-30T21:35:18.469Z,21.96
2022-08-30T21:37:45.652Z,21.87
2022-08-30T21:40:14.938Z,21.93
2022-08-30T21:42:42.199Z,21.94
2022-08-30T21:45:13.958Z,21.88
2022-08-30T21:47:42.421Z,21.94
2022-08-30T21:50:09.914Z,21.88
2022-08-30T21:52:37.882Z,21.89
2022-08-30T21:55:05.593Z,21.89
2022-08-30T21:57:33.189Z,21.96
2022-08-30T22:00:00.340Z,21.92
2022-08-30T22:02:29.224Z,21.91
2022-08-30T22:04:56.435Z,21.90
2022-08-30T22:07:23.666Z,21.85
2022-08-30T22:09:50.878Z,21.90
2022-08-30T22:12:18.077Z,21.79
2022-08-30T22:14:45.067Z,21.76
2022-08-30T22:17:12.799Z,21.54
2022-08-30T22:19:40.034Z,21.52
2022-08-30T22:22:07.287Z,21.58
2022-08-30T22:24:34.538Z,21.60
2022-08-30T22:27:03.157Z,21.64
2022-08-30T22:29:30.743Z,21.65
2022-08-30T22:31:57.996Z,21.63
2022-08-30T22:34:25.570Z,21.65
2022-08-30T22:36:52.692Z,21.64
2022-08-30T22:39:19.798Z,21.73
2022-08-30T22:41:47.485Z,21.70
2022-08-30T22:44:14.735Z,21.64
2022-08-30T22:46:42.288Z,21.65
2022-08-30T22:49:10.316Z,21.64
2022-08-30T22:51:38.635Z,21.65
2022-08-30T22:54:07.699Z,21.60
2022-08-30T22:56:36.903Z,21.73
2022-08-30T22:59:05.217Z,21.53
2022-08-30T23:01:37.838Z,21.51
2022-08-30T23:04:11.385Z,21.42
2022-08-30T23:06:38.564Z,21.47
2022-08-30T23:09:07.116Z,21.52
2022-08-30T23:11:36.986Z,21.48
2022-08-30T23:14:05.655Z,21.58
2022-08-30T23:16:33.954Z,21.55
2022-08-30T23:19:04.623Z,21.54
2022-08-30T23:21:32.277Z,21.55
2022-08-30T23:24:18.694Z,21.61
2022-08-30T23:27:05.610Z,21.61
2022-08-30T23:29:52.726Z,21.62
2022-08-30T23:32:39.529Z,21.66
2022-08-30T23:35:29.660Z,21.64
2022-08-30T23:38:17.594Z,21.64
2022-08-30T23:41:03.764Z,21.67
2022-08-30T23:43:49.754Z,21.65
2022-08-30T23:46:36.117Z,21.68
2022-08-30T23:49:22.412Z,21.69
2022-08-30T23:52:08.295Z,21.58
2022-08-30T23:54:57.583Z,21.70
2022-08-30T23:57:44.675Z,21.70
